Terminal Aerodrome Forecast
Issued by NWS Cleveland, OH

Home | Current Version | Previous Version | Graphics & Text | Print | Product List | Glossary On
Versions: 1 2 3 4 5 6 7 8 9 10 11 12 13 14 15 16 17 18 19 20 21 22 23 24 25 26 27 28 29 30
000
FTUS41 KCLE 191100
TAFCLE
TAF
KCLE 191120Z 1912/2018 30005KT P6SM OVC040
      TEMPO 1914/1916 SCT040
     FM191600 29008KT P6SM BKN250
     FM192000 24008KT P6SM BKN250
     FM200000 20006KT P6SM BKN250
     FM200600 20008KT P6SM SCT100 OVC250
     FM201200 20008KT P6SM OVC100
     FM201600 20012KT P6SM OVC050=

USA.gov is the U.S. government's official web portal to all federal, state and local government web resources and services.